Tuesday, October 17, 2017, 1:52 PM CDT
Back to Local

KGBD, Great Bend, Great Bend Municipal Airport

Location: Great Bend, KS, United States Lat: 38.35
Local Time: 1:52 PM CDT (18:52 GMT) Lon: -98.867
Time Zone: US/Central Elev: 1886 ft

Show me the last for .
Show Decoded

2017-10-17 12:56 METAR KGBD 171756Z AUTO 21008KT 10SM CLR 21/07 A3012 RMK AO2 SLP192 T02110072
                 10211 20050 58014 =
2017-10-17 11:56 METAR KGBD 171656Z AUTO 23006KT 10SM CLR 19/07 A3014 RMK AO2 SLP199 T01890067 =
2017-10-17 10:56 METAR KGBD 171556Z AUTO 26008KT 10SM CLR 16/05 A3015 RMK AO2 SLP204 T01560050
                 TSNO =
2017-10-17 10:03 METAR KGBD 171503Z AUTO 22011KT 10SM FEW002 12/04 A3016 RMK AO2 =
2017-10-17 09:56 METAR KGBD 171456Z AUTO 22012KT 10SM CLR 12/04 A3016 RMK AO2 SLP211 T01170039
                 53008 =
2017-10-17 08:56 METAR KGBD 171356Z AUTO 22008KT 10SM CLR 08/03 A3015 RMK AO2 SLP211 T00830033 =
2017-10-17 07:56 METAR KGBD 171256Z AUTO 10SM CLR 06/03 A3014 RMK AO2 SLP209 T00560028 $ =
2017-10-17 06:56 METAR KGBD 171156Z AUTO 20007KT 10SM CLR 07/03 A3014 RMK AO2 SLP205 T00670028
                 10117 20061 58001 =
2017-10-17 05:56 METAR KGBD 171056Z AUTO 19007KT 10SM CLR 07/03 A3014 RMK AO2 SLP203 T00670028 =
2017-10-17 04:56 METAR KGBD 170956Z AUTO 19007KT 10SM CLR 08/03 A3014 RMK AO2 SLP200 T00780028 =
2017-10-17 03:56 METAR KGBD 170856Z AUTO 19010KT 10SM CLR 09/03 A3014 RMK AO2 SLP200 T00890028
                 58009 =
2017-10-17 02:56 METAR KGBD 170756Z AUTO 18008KT 10SM CLR 10/03 A3016 RMK AO2 SLP206 T01000033 =
2017-10-17 01:56 METAR KGBD 170656Z AUTO 18012KT 10SM CLR 11/03 A3016 RMK AO2 SLP207 T01060033 =
2017-10-17 00:56 METAR KGBD 170556Z AUTO 19013KT 10SM CLR 12/03 A3017 RMK AO2 SLP209 T01170033
                 10161 20117 402220033 58006 =
2017-10-16 23:56 METAR KGBD 170456Z AUTO 18013KT 10SM CLR 12/03 A3018 RMK AO2 SLP214 T01220033 =
2017-10-16 22:56 METAR KGBD 170356Z AUTO 18012KT 10SM CLR 13/04 A3019 RMK AO2 SLP218 T01330039
                 TSNO =
2017-10-16 21:56 METAR KGBD 170256Z AUTO 17013KT 10SM CLR 13/04 A3019 RMK AO2 SLP221 T01330039
                 50002 TSNO =
2017-10-16 20:56 METAR KGBD 170156Z AUTO 16011KT 10SM CLR 13/03 A3019 RMK AO2 SLP227 T01330033 =
2017-10-16 19:56 METAR KGBD 170056Z AUTO 18007KT 10SM CLR 14/03 A3021 RMK AO2 SLP232 T01390033 =
2017-10-16 18:56 METAR KGBD 162356Z AUTO 17009KT 10SM CLR 16/03 A3018 RMK AO2 SLP221 T01610028
                 10222 20161 56011 =
2017-10-16 16:56 METAR KGBD 162156Z AUTO 19017G24KT 10SM CLR 22/02 A3020 RMK AO2 SLP224 T02170022
                 =
2017-10-16 15:56 METAR KGBD 162056Z AUTO 19017G22KT 10SM CLR 22/02 A3021 RMK AO2 SLP229 T02220017
                 56036 =
2017-10-16 14:56 METAR KGBD 161956Z AUTO 21016G22KT 10SM CLR 22/01 A3024 RMK AO2 PK WND
                 19026/1924 SLP239 T02220006 =
2017-10-16 13:56 METAR KGBD 161856Z AUTO 21016G22KT 10SM CLR 22/01 A3028 RMK AO2 SLP251 T02170011
                 =

Support USWX by starting your Amazon purchase here.